sensor_id;sensor_type;location;lat;lon;timestamp;temperature;humidity
48946;DHT22;34999;50.940;3.998;2023-05-28T00:02:33;13.60;99.90
48946;DHT22;34999;50.940;3.998;2023-05-28T00:05:04;13.50;99.90
48946;DHT22;34999;50.940;3.998;2023-05-28T00:07:32;13.40;99.90
48946;DHT22;34999;50.940;3.998;2023-05-28T00:10:01;13.30;99.90
48946;DHT22;34999;50.940;3.998;2023-05-28T00:12:29;13.20;99.90
48946;DHT22;34999;50.940;3.998;2023-05-28T00:14:58;13.20;99.90
48946;DHT22;34999;50.940;3.998;2023-05-28T00:17:26;13.20;99.90
48946;DHT22;34999;50.940;3.998;2023-05-28T00:19:55;13.20;99.90
48946;DHT22;34999;50.940;3.998;2023-05-28T00:22:25;13.30;99.90
48946;DHT22;34999;50.940;3.998;2023-05-28T00:24:54;13.20;99.90
48946;DHT22;34999;50.940;3.998;2023-05-28T00:27:25;13.20;99.90
48946;DHT22;34999;50.940;3.998;2023-05-28T00:29:54;13.10;99.90
48946;DHT22;34999;50.940;3.998;2023-05-28T00:32:22;13.10;99.90
48946;DHT22;34999;50.940;3.998;2023-05-28T00:34:50;13.10;99.90
48946;DHT22;34999;50.940;3.998;2023-05-28T00:37:19;13.00;99.90
48946;DHT22;34999;50.940;3.998;2023-05-28T00:39:48;13.00;99.90
48946;DHT22;34999;50.940;3.998;2023-05-28T00:42:17;13.00;99.90
48946;DHT22;34999;50.940;3.998;2023-05-28T00:44:45;13.00;99.90
48946;DHT22;34999;50.940;3.998;2023-05-28T00:47:14;13.00;99.90
48946;DHT22;34999;50.940;3.998;2023-05-28T00:49:43;13.00;99.90
48946;DHT22;34999;50.940;3.998;2023-05-28T00:52:12;12.90;99.90
48946;DHT22;34999;50.940;3.998;2023-05-28T00:54:40;12.90;99.90
48946;DHT22;34999;50.940;3.998;2023-05-28T00:57:11;12.90;99.90
48946;DHT22;34999;50.940;3.998;2023-05-28T00:59:39;12.80;99.90
48946;DHT22;34999;50.940;3.998;2023-05-28T01:02:08;12.80;99.90
48946;DHT22;34999;50.940;3.998;2023-05-28T01:04:36;12.80;99.90
48946;DHT22;34999;50.940;3.998;2023-05-28T01:07:04;12.80;99.90
48946;DHT22;34999;50.940;3.998;2023-05-28T01:09:33;12.80;99.90
48946;DHT22;34999;50.940;3.998;2023-05-28T01:12:02;12.80;99.90
48946;DHT22;34999;50.940;3.998;2023-05-28T01:14:35;12.80;99.90
48946;DHT22;34999;50.940;3.998;2023-05-28T01:17:05;12.70;99.90
48946;DHT22;34999;50.940;3.998;2023-05-28T01:19:34;12.70;99.90
48946;DHT22;34999;50.940;3.998;2023-05-28T01:22:04;12.70;99.90
48946;DHT22;34999;50.940;3.998;2023-05-28T01:24:35;12.70;99.90
48946;DHT22;34999;50.940;3.998;2023-05-28T01:27:04;12.70;99.90
48946;DHT22;34999;50.940;3.998;2023-05-28T01:29:32;12.70;99.90
48946;DHT22;34999;50.940;3.998;2023-05-28T01:32:01;12.70;99.90
48946;DHT22;34999;50.940;3.998;2023-05-28T01:34:29;12.70;99.90
48946;DHT22;34999;50.940;3.998;2023-05-28T01:36:59;12.60;99.90
48946;DHT22;34999;50.940;3.998;2023-05-28T01:39:36;12.60;99.90
48946;DHT22;34999;50.940;3.998;2023-05-28T01:42:08;12.60;99.90
48946;DHT22;34999;50.940;3.998;2023-05-28T01:44:39;12.60;99.90
48946;DHT22;34999;50.940;3.998;2023-05-28T01:47:08;12.50;99.90
48946;DHT22;34999;50.940;3.998;2023-05-28T01:49:38;12.50;99.90
48946;DHT22;34999;50.940;3.998;2023-05-28T01:52:07;12.50;99.90
48946;DHT22;34999;50.940;3.998;2023-05-28T01:54:37;12.50;99.90
48946;DHT22;34999;50.940;3.998;2023-05-28T01:57:06;12.50;99.90
48946;DHT22;34999;50.940;3.998;2023-05-28T01:59:34;12.50;99.90
48946;DHT22;34999;50.940;3.998;2023-05-28T02:02:04;12.40;99.90
48946;DHT22;34999;50.940;3.998;2023-05-28T02:04:33;12.40;99.90
48946;DHT22;34999;50.940;3.998;2023-05-28T02:07:02;12.30;99.90
48946;DHT22;34999;50.940;3.998;2023-05-28T02:09:30;12.30;99.90
48946;DHT22;34999;50.940;3.998;2023-05-28T02:12:00;12.30;99.90
48946;DHT22;34999;50.940;3.998;2023-05-28T02:14:30;12.20;99.90
48946;DHT22;34999;50.940;3.998;2023-05-28T02:17:00;12.20;99.90
48946;DHT22;34999;50.940;3.998;2023-05-28T02:19:28;12.20;99.90
48946;DHT22;34999;50.940;3.998;2023-05-28T02:21:56;12.10;99.90
48946;DHT22;34999;50.940;3.998;2023-05-28T02:24:25;12.10;99.90
48946;DHT22;34999;50.940;3.998;2023-05-28T02:26:53;12.10;99.90
48946;DHT22;34999;50.940;3.998;2023-05-28T02:29:23;12.10;99.90
48946;DHT22;34999;50.940;3.998;2023-05-28T02:31:52;12.10;99.90
48946;DHT22;34999;50.940;3.998;2023-05-28T02:34:20;12.10;99.90
48946;DHT22;34999;50.940;3.998;2023-05-28T02:36:48;12.00;99.90
48946;DHT22;34999;50.940;3.998;2023-05-28T02:39:19;12.00;99.90
48946;DHT22;34999;50.940;3.998;2023-05-28T02:41:48;11.90;99.90
48946;DHT22;34999;50.940;3.998;2023-05-28T02:44:16;11.90;99.90
48946;DHT22;34999;50.940;3.998;2023-05-28T02:46:46;11.90;99.90
48946;DHT22;34999;50.940;3.998;2023-05-28T02:49:14;11.80;99.90
48946;DHT22;34999;50.940;3.998;2023-05-28T02:51:42;11.80;99.90
48946;DHT22;34999;50.940;3.998;2023-05-28T02:54:11;11.80;99.90
48946;DHT22;34999;50.940;3.998;2023-05-28T02:56:39;11.80;99.90
48946;DHT22;34999;50.940;3.998;2023-05-28T02:59:07;11.80;99.90
48946;DHT22;34999;50.940;3.998;2023-05-28T03:01:36;11.70;99.90
48946;DHT22;34999;50.940;3.998;2023-05-28T03:04:06;11.70;99.90
48946;DHT22;34999;50.940;3.998;2023-05-28T03:06:34;11.70;99.90
48946;DHT22;34999;50.940;3.998;2023-05-28T03:09:03;11.60;99.90
48946;DHT22;34999;50.940;3.998;2023-05-28T03:11:32;11.60;99.90
48946;DHT22;34999;50.940;3.998;2023-05-28T03:14:00;11.60;99.90
48946;DHT22;34999;50.940;3.998;2023-05-28T03:16:28;11.60;99.90
48946;DHT22;34999;50.940;3.998;2023-05-28T03:18:59;11.60;99.90
48946;DHT22;34999;50.940;3.998;2023-05-28T03:21:29;11.60;99.90
48946;DHT22;34999;50.940;3.998;2023-05-28T03:23:58;11.60;99.90
48946;DHT22;34999;50.940;3.998;2023-05-28T03:26:26;11.60;99.90
48946;DHT22;34999;50.940;3.998;2023-05-28T03:28:55;11.50;99.90
48946;DHT22;34999;50.940;3.998;2023-05-28T03:31:27;11.60;99.90
48946;DHT22;34999;50.940;3.998;2023-05-28T03:33:56;11.50;99.90
48946;DHT22;34999;50.940;3.998;2023-05-28T03:36:24;11.40;99.90
48946;DHT22;34999;50.940;3.998;2023-05-28T03:38:54;11.30;99.90
48946;DHT22;34999;50.940;3.998;2023-05-28T03:41:23;11.30;99.90
48946;DHT22;34999;50.940;3.998;2023-05-28T03:43:52;11.30;99.90
48946;DHT22;34999;50.940;3.998;2023-05-28T03:46:23;11.30;99.90
48946;DHT22;34999;50.940;3.998;2023-05-28T03:48:51;11.30;99.90
48946;DHT22;34999;50.940;3.998;2023-05-28T03:51:20;11.30;99.90
48946;DHT22;34999;50.940;3.998;2023-05-28T03:53:48;11.30;99.90
48946;DHT22;34999;50.940;3.998;2023-05-28T03:56:18;11.30;99.90
48946;DHT22;34999;50.940;3.998;2023-05-28T03:58:46;11.30;99.90
48946;DHT22;34999;50.940;3.998;2023-05-28T04:01:14;11.30;99.90
48946;DHT22;34999;50.940;3.998;2023-05-28T04:03:43;11.30;99.90
48946;DHT22;34999;50.940;3.998;2023-05-28T04:06:12;11.30;99.90
48946;DHT22;34999;50.940;3.998;2023-05-28T04:08:40;11.30;99.90
48946;DHT22;34999;50.940;3.998;2023-05-28T04:11:09;11.20;99.90
48946;DHT22;34999;50.940;3.998;2023-05-28T04:13:39;11.20;99.90
48946;DHT22;34999;50.940;3.998;2023-05-28T04:16:08;11.20;99.90
48946;DHT22;34999;50.940;3.998;2023-05-28T04:18:36;11.20;99.90
48946;DHT22;34999;50.940;3.998;2023-05-28T04:21:05;11.30;99.90
48946;DHT22;34999;50.940;3.998;2023-05-28T04:23:34;11.30;99.90
48946;DHT22;34999;50.940;3.998;2023-05-28T04:26:03;11.30;99.90
48946;DHT22;34999;50.940;3.998;2023-05-28T04:28:33;11.30;99.90
48946;DHT22;34999;50.940;3.998;2023-05-28T04:31:03;11.40;99.90
48946;DHT22;34999;50.940;3.998;2023-05-28T04:33:32;11.40;99.90
48946;DHT22;34999;50.940;3.998;2023-05-28T04:36:00;11.40;99.90
48946;DHT22;34999;50.940;3.998;2023-05-28T04:38:30;11.50;99.90
48946;DHT22;34999;50.940;3.998;2023-05-28T04:41:00;11.60;99.90
48946;DHT22;34999;50.940;3.998;2023-05-28T04:43:31;11.60;99.90
48946;DHT22;34999;50.940;3.998;2023-05-28T04:46:00;11.70;99.90
48946;DHT22;34999;50.940;3.998;2023-05-28T04:48:31;11.80;99.90
48946;DHT22;34999;50.940;3.998;2023-05-28T04:51:02;11.80;99.90
48946;DHT22;34999;50.940;3.998;2023-05-28T04:53:32;11.90;99.90
48946;DHT22;34999;50.940;3.998;2023-05-28T04:56:01;12.00;99.90
48946;DHT22;34999;50.940;3.998;2023-05-28T04:58:30;12.10;99.90
48946;DHT22;34999;50.940;3.998;2023-05-28T05:00:59;12.20;99.90
48946;DHT22;34999;50.940;3.998;2023-05-28T05:03:29;12.30;99.90
48946;DHT22;34999;50.940;3.998;2023-05-28T05:06:00;12.30;99.90
48946;DHT22;34999;50.940;3.998;2023-05-28T05:08:30;12.40;99.90
48946;DHT22;34999;50.940;3.998;2023-05-28T05:11:00;12.50;99.90
48946;DHT22;34999;50.940;3.998;2023-05-28T05:13:29;12.60;99.90
48946;DHT22;34999;50.940;3.998;2023-05-28T05:15:57;12.70;99.90
48946;DHT22;34999;50.940;3.998;2023-05-28T05:18:25;12.70;99.90
48946;DHT22;34999;50.940;3.998;2023-05-28T05:20:54;12.80;99.90
48946;DHT22;34999;50.940;3.998;2023-05-28T05:23:25;13.00;99.90
48946;DHT22;34999;50.940;3.998;2023-05-28T05:25:53;13.00;99.90
48946;DHT22;34999;50.940;3.998;2023-05-28T05:28:22;13.10;99.90
48946;DHT22;34999;50.940;3.998;2023-05-28T05:30:50;13.10;99.90
48946;DHT22;34999;50.940;3.998;2023-05-28T05:33:18;13.20;99.90
48946;DHT22;34999;50.940;3.998;2023-05-28T05:35:47;13.30;99.90
48946;DHT22;34999;50.940;3.998;2023-05-28T05:38:15;13.40;99.90
48946;DHT22;34999;50.940;3.998;2023-05-28T05:40:44;13.50;99.90
48946;DHT22;34999;50.940;3.998;2023-05-28T05:43:13;13.60;99.90
48946;DHT22;34999;50.940;3.998;2023-05-28T05:45:42;13.70;99.90
48946;DHT22;34999;50.940;3.998;2023-05-28T05:48:11;13.90;99.90
48946;DHT22;34999;50.940;3.998;2023-05-28T05:50:49;14.00;99.90
48946;DHT22;34999;50.940;3.998;2023-05-28T05:53:19;14.10;99.90
48946;DHT22;34999;50.940;3.998;2023-05-28T05:55:50;14.20;99.90
48946;DHT22;34999;50.940;3.998;2023-05-28T05:58:19;14.40;99.90
48946;DHT22;34999;50.940;3.998;2023-05-28T06:00:47;14.50;99.90
48946;DHT22;34999;50.940;3.998;2023-05-28T06:03:16;14.60;99.90
48946;DHT22;34999;50.940;3.998;2023-05-28T06:05:45;14.80;99.90
48946;DHT22;34999;50.940;3.998;2023-05-28T06:08:13;14.90;99.90
48946;DHT22;34999;50.940;3.998;2023-05-28T06:10:42;15.00;99.90
48946;DHT22;34999;50.940;3.998;2023-05-28T06:13:14;15.10;99.90
48946;DHT22;34999;50.940;3.998;2023-05-28T06:15:42;15.10;99.90
48946;DHT22;34999;50.940;3.998;2023-05-28T06:18:11;15.20;99.90
48946;DHT22;34999;50.940;3.998;2023-05-28T06:20:40;15.20;99.90
48946;DHT22;34999;50.940;3.998;2023-05-28T06:23:09;15.30;99.90
48946;DHT22;34999;50.940;3.998;2023-05-28T06:25:38;15.40;99.90
48946;DHT22;34999;50.940;3.998;2023-05-28T06:28:06;15.40;99.90
48946;DHT22;34999;50.940;3.998;2023-05-28T06:30:35;15.50;99.90
48946;DHT22;34999;50.940;3.998;2023-05-28T06:33:04;15.70;99.90
48946;DHT22;34999;50.940;3.998;2023-05-28T06:35:33;15.80;99.90
48946;DHT22;34999;50.940;3.998;2023-05-28T06:38:01;16.00;99.90
48946;DHT22;34999;50.940;3.998;2023-05-28T06:40:30;16.10;99.90
48946;DHT22;34999;50.940;3.998;2023-05-28T06:42:58;16.30;99.90
48946;DHT22;34999;50.940;3.998;2023-05-28T06:45:28;16.40;99.90
48946;DHT22;34999;50.940;3.998;2023-05-28T06:48:01;16.40;99.90
48946;DHT22;34999;50.940;3.998;2023-05-28T06:50:30;16.50;99.90
48946;DHT22;34999;50.940;3.998;2023-05-28T06:52:58;16.60;99.90
48946;DHT22;34999;50.940;3.998;2023-05-28T06:55:27;16.80;99.90
48946;DHT22;34999;50.940;3.998;2023-05-28T06:57:55;17.00;99.90
48946;DHT22;34999;50.940;3.998;2023-05-28T07:00:24;17.20;99.90
48946;DHT22;34999;50.940;3.998;2023-05-28T07:02:52;17.40;99.90
48946;DHT22;34999;50.940;3.998;2023-05-28T07:05:22;17.50;99.90
48946;DHT22;34999;50.940;3.998;2023-05-28T07:07:50;17.60;99.90
48946;DHT22;34999;50.940;3.998;2023-05-28T07:10:19;17.80;99.90
48946;DHT22;34999;50.940;3.998;2023-05-28T07:12:47;18.00;99.90
48946;DHT22;34999;50.940;3.998;2023-05-28T07:15:16;18.00;99.90
48946;DHT22;34999;50.940;3.998;2023-05-28T07:17:44;18.10;99.90
48946;DHT22;34999;50.940;3.998;2023-05-28T07:20:13;18.20;99.90
48946;DHT22;34999;50.940;3.998;2023-05-28T07:22:44;18.30;99.90
48946;DHT22;34999;50.940;3.998;2023-05-28T07:25:13;18.40;99.90
48946;DHT22;34999;50.940;3.998;2023-05-28T07:27:41;18.60;99.90
48946;DHT22;34999;50.940;3.998;2023-05-28T07:30:10;18.60;99.90
48946;DHT22;34999;50.940;3.998;2023-05-28T07:32:38;18.80;99.90
48946;DHT22;34999;50.940;3.998;2023-05-28T07:35:07;19.00;99.90
48946;DHT22;34999;50.940;3.998;2023-05-28T07:37:35;19.30;99.90
48946;DHT22;34999;50.940;3.998;2023-05-28T07:40:07;19.60;99.90
48946;DHT22;34999;50.940;3.998;2023-05-28T07:42:37;19.70;99.90
48946;DHT22;34999;50.940;3.998;2023-05-28T07:45:06;19.90;99.90
48946;DHT22;34999;50.940;3.998;2023-05-28T07:47:35;20.30;99.90
48946;DHT22;34999;50.940;3.998;2023-05-28T07:50:04;20.60;99.90
48946;DHT22;34999;50.940;3.998;2023-05-28T07:52:32;20.80;99.90
48946;DHT22;34999;50.940;3.998;2023-05-28T07:55:02;20.80;99.90
48946;DHT22;34999;50.940;3.998;2023-05-28T07:57:31;20.70;99.90
48946;DHT22;34999;50.940;3.998;2023-05-28T08:00:00;20.70;99.90
48946;DHT22;34999;50.940;3.998;2023-05-28T08:02:29;20.90;99.90
48946;DHT22;34999;50.940;3.998;2023-05-28T08:04:58;21.10;99.90
48946;DHT22;34999;50.940;3.998;2023-05-28T08:07:28;21.30;99.90
48946;DHT22;34999;50.940;3.998;2023-05-28T08:09:56;21.50;99.90
48946;DHT22;34999;50.940;3.998;2023-05-28T08:12:24;21.70;99.90
48946;DHT22;34999;50.940;3.998;2023-05-28T08:14:54;21.70;99.90
48946;DHT22;34999;50.940;3.998;2023-05-28T08:17:23;22.00;99.90
48946;DHT22;34999;50.940;3.998;2023-05-28T08:19:51;22.10;99.90
48946;DHT22;34999;50.940;3.998;2023-05-28T08:22:22;22.20;99.90
48946;DHT22;34999;50.940;3.998;2023-05-28T08:24:51;22.30;99.90
48946;DHT22;34999;50.940;3.998;2023-05-28T08:27:19;22.50;99.90
48946;DHT22;34999;50.940;3.998;2023-05-28T08:29:48;22.70;99.90
48946;DHT22;34999;50.940;3.998;2023-05-28T08:32:17;23.00;99.90
48946;DHT22;34999;50.940;3.998;2023-05-28T08:34:46;23.00;99.90
48946;DHT22;34999;50.940;3.998;2023-05-28T08:37:15;23.10;99.90
48946;DHT22;34999;50.940;3.998;2023-05-28T08:39:43;23.20;99.90
48946;DHT22;34999;50.940;3.998;2023-05-28T08:42:13;23.40;99.90
48946;DHT22;34999;50.940;3.998;2023-05-28T08:44:42;23.70;99.90
48946;DHT22;34999;50.940;3.998;2023-05-28T08:47:11;23.80;99.90
48946;DHT22;34999;50.940;3.998;2023-05-28T08:49:47;23.80;99.90
48946;DHT22;34999;50.940;3.998;2023-05-28T08:52:19;23.70;99.90
48946;DHT22;34999;50.940;3.998;2023-05-28T08:54:48;23.50;99.90
48946;DHT22;34999;50.940;3.998;2023-05-28T08:57:16;23.60;99.90
48946;DHT22;34999;50.940;3.998;2023-05-28T08:59:45;23.40;99.90
48946;DHT22;34999;50.940;3.998;2023-05-28T09:02:15;23.40;99.90
48946;DHT22;34999;50.940;3.998;2023-05-28T09:04:44;23.30;99.90
48946;DHT22;34999;50.940;3.998;2023-05-28T09:07:13;23.50;99.90
48946;DHT22;34999;50.940;3.998;2023-05-28T09:09:42;23.90;99.90
48946;DHT22;34999;50.940;3.998;2023-05-28T09:12:11;24.20;99.90
48946;DHT22;34999;50.940;3.998;2023-05-28T09:14:41;24.60;99.90
48946;DHT22;34999;50.940;3.998;2023-05-28T09:17:10;25.20;99.90
48946;DHT22;34999;50.940;3.998;2023-05-28T09:19:51;25.40;99.90
48946;DHT22;34999;50.940;3.998;2023-05-28T09:22:19;25.60;99.90
48946;DHT22;34999;50.940;3.998;2023-05-28T09:24:48;25.80;99.90
48946;DHT22;34999;50.940;3.998;2023-05-28T09:27:17;26.00;99.90
48946;DHT22;34999;50.940;3.998;2023-05-28T09:29:47;26.40;99.90
48946;DHT22;34999;50.940;3.998;2023-05-28T09:32:18;26.70;99.90
48946;DHT22;34999;50.940;3.998;2023-05-28T09:34:50;26.80;99.90
48946;DHT22;34999;50.940;3.998;2023-05-28T09:37:20;27.00;99.90
48946;DHT22;34999;50.940;3.998;2023-05-28T09:39:59;27.20;99.90
48946;DHT22;34999;50.940;3.998;2023-05-28T09:42:31;27.20;99.90
48946;DHT22;34999;50.940;3.998;2023-05-28T09:45:01;27.50;99.90
48946;DHT22;34999;50.940;3.998;2023-05-28T09:47:31;27.20;99.90
48946;DHT22;34999;50.940;3.998;2023-05-28T09:50:01;27.20;99.90
48946;DHT22;34999;50.940;3.998;2023-05-28T09:52:30;27.30;99.90
48946;DHT22;34999;50.940;3.998;2023-05-28T09:54:58;27.50;99.90
48946;DHT22;34999;50.940;3.998;2023-05-28T09:57:30;27.60;99.90
48946;DHT22;34999;50.940;3.998;2023-05-28T10:00:00;27.80;99.90
48946;DHT22;34999;50.940;3.998;2023-05-28T10:02:43;27.70;99.90
48946;DHT22;34999;50.940;3.998;2023-05-28T10:05:16;28.00;99.90
48946;DHT22;34999;50.940;3.998;2023-05-28T10:07:49;27.90;99.90
48946;DHT22;34999;50.940;3.998;2023-05-28T10:10:20;27.70;99.90
48946;DHT22;34999;50.940;3.998;2023-05-28T10:12:50;27.90;99.90
48946;DHT22;34999;50.940;3.998;2023-05-28T10:15:20;28.10;99.90
48946;DHT22;34999;50.940;3.998;2023-05-28T10:17:49;28.40;99.90
48946;DHT22;34999;50.940;3.998;2023-05-28T10:20:20;28.60;99.90
48946;DHT22;34999;50.940;3.998;2023-05-28T10:22:49;28.70;99.90
48946;DHT22;34999;50.940;3.998;2023-05-28T10:25:17;28.60;99.90
48946;DHT22;34999;50.940;3.998;2023-05-28T10:27:46;28.30;99.90
48946;DHT22;34999;50.940;3.998;2023-05-28T10:30:32;28.30;99.90
48946;DHT22;34999;50.940;3.998;2023-05-28T10:33:03;28.20;99.90
48946;DHT22;34999;50.940;3.998;2023-05-28T10:35:35;28.50;99.90
48946;DHT22;34999;50.940;3.998;2023-05-28T10:38:07;28.60;99.90
48946;DHT22;34999;50.940;3.998;2023-05-28T10:40:39;28.90;99.90
48946;DHT22;34999;50.940;3.998;2023-05-28T10:46:17;29.00;99.90
48946;DHT22;34999;50.940;3.998;2023-05-28T10:49:04;28.90;99.90
48946;DHT22;34999;50.940;3.998;2023-05-28T10:52:01;29.10;99.90
48946;DHT22;34999;50.940;3.998;2023-05-28T10:54:40;29.30;99.80
48946;DHT22;34999;50.940;3.998;2023-05-28T10:57:13;29.20;98.10
48946;DHT22;34999;50.940;3.998;2023-05-28T10:59:46;29.10;98.40
48946;DHT22;34999;50.940;3.998;2023-05-28T11:02:20;29.20;98.70
48946;DHT22;34999;50.940;3.998;2023-05-28T11:04:53;29.00;99.80
48946;DHT22;34999;50.940;3.998;2023-05-28T11:07:29;28.90;99.50
48946;DHT22;34999;50.940;3.998;2023-05-28T11:09:58;28.80;99.90
48946;DHT22;34999;50.940;3.998;2023-05-28T11:12:27;28.60;99.90
48946;DHT22;34999;50.940;3.998;2023-05-28T11:15:16;28.70;99.90
48946;DHT22;34999;50.940;3.998;2023-05-28T11:18:05;28.60;99.20
48946;DHT22;34999;50.940;3.998;2023-05-28T11:20:36;28.70;99.50
48946;DHT22;34999;50.940;3.998;2023-05-28T11:23:15;28.40;99.90
48946;DHT22;34999;50.940;3.998;2023-05-28T11:25:47;28.30;99.90
48946;DHT22;34999;50.940;3.998;2023-05-28T11:28:18;28.20;99.90
48946;DHT22;34999;50.940;3.998;2023-05-28T11:30:50;28.00;99.80
48946;DHT22;34999;50.940;3.998;2023-05-28T11:33:19;27.90;99.90
48946;DHT22;34999;50.940;3.998;2023-05-28T11:35:56;28.00;99.90
48946;DHT22;34999;50.940;3.998;2023-05-28T11:38:26;27.90;99.30
48946;DHT22;34999;50.940;3.998;2023-05-28T11:40:59;27.80;99.40
48946;DHT22;34999;50.940;3.998;2023-05-28T11:43:28;27.20;99.50
48946;DHT22;34999;50.940;3.998;2023-05-28T11:45:57;27.10;99.70
48946;DHT22;34999;50.940;3.998;2023-05-28T11:48:26;27.00;99.70
48946;DHT22;34999;50.940;3.998;2023-05-28T11:51:01;27.10;99.90
48946;DHT22;34999;50.940;3.998;2023-05-28T11:53:41;27.00;99.90
48946;DHT22;34999;50.940;3.998;2023-05-28T11:56:11;27.10;99.90
48946;DHT22;34999;50.940;3.998;2023-05-28T11:58:44;27.10;99.40
48946;DHT22;34999;50.940;3.998;2023-05-28T12:01:13;27.00;99.90
48946;DHT22;34999;50.940;3.998;2023-05-28T12:03:43;27.20;99.90
48946;DHT22;34999;50.940;3.998;2023-05-28T12:06:11;27.10;99.90
48946;DHT22;34999;50.940;3.998;2023-05-28T12:08:50;27.20;99.90
48946;DHT22;34999;50.940;3.998;2023-05-28T12:11:25;27.30;99.90
48946;DHT22;34999;50.940;3.998;2023-05-28T12:13:55;27.40;99.90
48946;DHT22;34999;50.940;3.998;2023-05-28T12:16:25;27.30;99.90
48946;DHT22;34999;50.940;3.998;2023-05-28T12:19:00;27.30;99.90
48946;DHT22;34999;50.940;3.998;2023-05-28T12:21:34;26.90;99.10
48946;DHT22;34999;50.940;3.998;2023-05-28T12:24:11;26.90;99.90
48946;DHT22;34999;50.940;3.998;2023-05-28T12:26:42;26.90;99.90
48946;DHT22;34999;50.940;3.998;2023-05-28T12:29:11;26.80;99.90
48946;DHT22;34999;50.940;3.998;2023-05-28T12:31:39;26.70;99.90
48946;DHT22;34999;50.940;3.998;2023-05-28T12:34:07;26.50;99.90
48946;DHT22;34999;50.940;3.998;2023-05-28T12:36:36;26.50;99.90
48946;DHT22;34999;50.940;3.998;2023-05-28T12:39:06;26.50;99.90
48946;DHT22;34999;50.940;3.998;2023-05-28T12:41:34;26.40;99.40
48946;DHT22;34999;50.940;3.998;2023-05-28T12:44:02;26.30;99.90
48946;DHT22;34999;50.940;3.998;2023-05-28T12:46:30;26.30;99.90
48946;DHT22;34999;50.940;3.998;2023-05-28T12:48:59;26.40;99.90
48946;DHT22;34999;50.940;3.998;2023-05-28T12:51:27;26.40;98.70
48946;DHT22;34999;50.940;3.998;2023-05-28T12:53:56;26.00;99.50
48946;DHT22;34999;50.940;3.998;2023-05-28T12:56:28;26.00;99.90
48946;DHT22;34999;50.940;3.998;2023-05-28T12:58:59;26.40;99.90
48946;DHT22;34999;50.940;3.998;2023-05-28T13:01:27;26.70;99.90
48946;DHT22;34999;50.940;3.998;2023-05-28T13:03:56;26.60;99.00
48946;DHT22;34999;50.940;3.998;2023-05-28T13:06:27;26.50;99.90
48946;DHT22;34999;50.940;3.998;2023-05-28T13:08:55;26.80;99.90
48946;DHT22;34999;50.940;3.998;2023-05-28T13:11:25;27.00;99.90
48946;DHT22;34999;50.940;3.998;2023-05-28T13:13:55;27.10;98.40
48946;DHT22;34999;50.940;3.998;2023-05-28T13:16:24;27.10;97.60
48946;DHT22;34999;50.940;3.998;2023-05-28T13:18:54;26.70;97.30
48946;DHT22;34999;50.940;3.998;2023-05-28T13:21:23;26.70;98.40
48946;DHT22;34999;50.940;3.998;2023-05-28T13:23:53;26.80;99.90
48946;DHT22;34999;50.940;3.998;2023-05-28T13:26:22;27.10;99.20
48946;DHT22;34999;50.940;3.998;2023-05-28T13:28:50;26.80;96.50
48946;DHT22;34999;50.940;3.998;2023-05-28T13:31:20;26.80;97.80
48946;DHT22;34999;50.940;3.998;2023-05-28T13:33:49;26.90;99.20
48946;DHT22;34999;50.940;3.998;2023-05-28T13:36:17;27.20;99.90
48946;DHT22;34999;50.940;3.998;2023-05-28T13:38:45;27.50;98.90
48946;DHT22;34999;50.940;3.998;2023-05-28T13:41:15;27.80;98.50
48946;DHT22;34999;50.940;3.998;2023-05-28T13:43:44;27.90;99.20
48946;DHT22;34999;50.940;3.998;2023-05-28T13:46:13;28.10;98.90
48946;DHT22;34999;50.940;3.998;2023-05-28T13:48:44;28.10;98.40
48946;DHT22;34999;50.940;3.998;2023-05-28T13:51:13;28.10;98.40
48946;DHT22;34999;50.940;3.998;2023-05-28T13:53:41;27.90;98.10
48946;DHT22;34999;50.940;3.998;2023-05-28T13:56:12;28.00;99.80
48946;DHT22;34999;50.940;3.998;2023-05-28T13:58:43;28.30;99.90
48946;DHT22;34999;50.940;3.998;2023-05-28T14:01:11;28.30;99.70
48946;DHT22;34999;50.940;3.998;2023-05-28T14:03:40;28.10;98.80
48946;DHT22;34999;50.940;3.998;2023-05-28T14:06:14;28.20;97.90
48946;DHT22;34999;50.940;3.998;2023-05-28T14:08:42;28.20;99.90
48946;DHT22;34999;50.940;3.998;2023-05-28T14:11:10;28.30;98.60
48946;DHT22;34999;50.940;3.998;2023-05-28T14:13:39;28.30;99.10
48946;DHT22;34999;50.940;3.998;2023-05-28T14:16:07;28.30;99.20
48946;DHT22;34999;50.940;3.998;2023-05-28T14:18:35;28.50;98.60
48946;DHT22;34999;50.940;3.998;2023-05-28T14:21:04;28.50;99.10
48946;DHT22;34999;50.940;3.998;2023-05-28T14:23:35;28.40;99.20
48946;DHT22;34999;50.940;3.998;2023-05-28T14:26:04;28.50;99.90
48946;DHT22;34999;50.940;3.998;2023-05-28T14:28:32;28.70;97.40
48946;DHT22;34999;50.940;3.998;2023-05-28T14:31:01;28.50;99.10
48946;DHT22;34999;50.940;3.998;2023-05-28T14:33:29;28.50;99.90
48946;DHT22;34999;50.940;3.998;2023-05-28T14:35:58;28.50;97.60
48946;DHT22;34999;50.940;3.998;2023-05-28T14:38:43;28.40;98.10
48946;DHT22;34999;50.940;3.998;2023-05-28T14:41:11;28.50;99.10
48946;DHT22;34999;50.940;3.998;2023-05-28T14:43:39;28.50;96.20
48946;DHT22;34999;50.940;3.998;2023-05-28T14:46:08;28.60;99.20
48946;DHT22;34999;50.940;3.998;2023-05-28T14:48:36;28.90;95.60
48946;DHT22;34999;50.940;3.998;2023-05-28T14:51:05;29.00;97.90
48946;DHT22;34999;50.940;3.998;2023-05-28T14:53:34;29.00;95.50
48946;DHT22;34999;50.940;3.998;2023-05-28T14:56:04;28.80;92.60
48946;DHT22;34999;50.940;3.998;2023-05-28T14:58:32;28.50;96.00
48946;DHT22;34999;50.940;3.998;2023-05-28T15:01:00;28.40;93.10
48946;DHT22;34999;50.940;3.998;2023-05-28T15:03:30;28.40;94.60
48946;DHT22;34999;50.940;3.998;2023-05-28T15:05:59;28.10;91.40
48946;DHT22;34999;50.940;3.998;2023-05-28T15:08:27;27.80;91.90
48946;DHT22;34999;50.940;3.998;2023-05-28T15:10:56;27.70;92.60
48946;DHT22;34999;50.940;3.998;2023-05-28T15:13:26;28.10;95.00
48946;DHT22;34999;50.940;3.998;2023-05-28T15:15:54;28.40;94.80
48946;DHT22;34999;50.940;3.998;2023-05-28T15:18:23;28.80;94.20
48946;DHT22;34999;50.940;3.998;2023-05-28T15:20:52;28.80;96.00
48946;DHT22;34999;50.940;3.998;2023-05-28T15:23:21;29.00;94.20
48946;DHT22;34999;50.940;3.998;2023-05-28T15:25:49;29.10;94.50
48946;DHT22;34999;50.940;3.998;2023-05-28T15:28:18;29.30;94.80
48946;DHT22;34999;50.940;3.998;2023-05-28T15:30:48;29.20;94.60
48946;DHT22;34999;50.940;3.998;2023-05-28T15:33:17;29.30;94.20
48946;DHT22;34999;50.940;3.998;2023-05-28T15:35:46;29.30;94.70
48946;DHT22;34999;50.940;3.998;2023-05-28T15:38:14;29.30;93.50
48946;DHT22;34999;50.940;3.998;2023-05-28T15:40:43;29.30;93.00
48946;DHT22;34999;50.940;3.998;2023-05-28T15:43:13;29.30;93.80
48946;DHT22;34999;50.940;3.998;2023-05-28T15:45:41;29.20;93.80
48946;DHT22;34999;50.940;3.998;2023-05-28T15:48:11;29.10;92.00
48946;DHT22;34999;50.940;3.998;2023-05-28T15:50:40;28.90;94.40